Time;durP1;ratioP1;P1;durP2;ratioP2;P2;SDS_P1;SDS_P2;PMS_P1;PMS_P2;Temp;Humidity;BMP_temperature;BMP_pressure;BME280_temperature;BME280_humidity;BME280_pressure;Samples;Min_cycle;Max_cycle;Signal;HPM_P1;HPM_P2
2022/11/26 00:00:50;;;;;;;19.30;14.55;;;;;;;8.01;96.95;99082.06;4180168;28;20259;-85
2022/11/26 00:02:54;;;;;;;17.38;13.82;;;;;;;7.94;96.45;99077.19;4201944;28;20235;-85
2022/11/26 00:04:58;;;;;;;16.58;12.88;;;;;;;7.90;96.71;99072.19;4184243;28;20221;-85
2022/11/26 00:07:01;;;;;;;18.35;14.18;;;;;;;7.85;97.61;99069.78;4196360;28;20293;-85
2022/11/26 00:09:05;;;;;;;21.13;15.73;;;;;;;7.79;96.50;99070.03;4187792;28;20715;-85
2022/11/26 00:11:13;;;;;;;21.42;15.57;;;;;;;7.72;96.47;99073.78;4185897;28;20216;-85
2022/11/26 00:13:18;;;;;;;20.52;15.60;;;;;;;7.68;95.71;99079.16;4188622;28;20213;-85
2022/11/26 00:15:23;;;;;;;17.67;14.68;;;;;;;7.64;96.22;99075.03;4185230;28;20217;-85
2022/11/26 00:17:27;;;;;;;16.55;13.02;;;;;;;7.62;96.56;99075.09;4190047;28;20944;-85
2022/11/26 00:19:30;;;;;;;16.75;14.80;;;;;;;7.59;97.35;99074.34;4183702;28;20197;-85
2022/11/26 00:21:35;;;;;;;19.58;15.68;;;;;;;7.56;96.91;99074.47;4201306;28;20271;-85
2022/11/26 00:23:38;;;;;;;17.65;14.43;;;;;;;7.57;97.31;99081.38;4179509;28;20214;-85
2022/11/26 00:25:44;;;;;;;20.63;15.68;;;;;;;7.55;96.38;99080.59;4181624;28;20264;-85
2022/11/26 00:27:48;;;;;;;19.25;15.73;;;;;;;7.53;95.99;99079.78;4185021;28;20209;-85
2022/11/26 00:29:51;;;;;;;18.15;15.23;;;;;;;7.51;96.00;99076.41;4186864;28;20207;-85
2022/11/26 00:31:54;;;;;;;17.20;14.25;;;;;;;7.51;96.10;99082.44;4204586;28;20656;-85
2022/11/26 00:33:58;;;;;;;20.67;15.93;;;;;;;7.55;98.02;99088.38;4201792;28;20208;-85
2022/11/26 00:36:04;;;;;;;20.00;14.80;;;;;;;7.55;97.69;99090.97;4204043;28;20205;-85
2022/11/26 00:38:14;;;;;;;18.30;14.93;;;;;;;7.54;97.59;99089.28;4203162;28;20205;-85
2022/11/26 00:40:20;;;;;;;23.45;16.73;;;;;;;7.51;96.35;99089.41;4197302;28;20211;-85
2022/11/26 00:42:23;;;;;;;18.27;15.10;;;;;;;7.50;97.84;99087.69;4182741;28;20681;-84
2022/11/26 00:44:26;;;;;;;20.50;16.13;;;;;;;7.49;96.65;99089.47;4194209;28;20213;-85
2022/11/26 00:46:29;;;;;;;20.45;17.35;;;;;;;7.50;97.88;99098.94;4187094;28;20255;-85
2022/11/26 00:48:32;;;;;;;20.40;15.23;;;;;;;7.51;97.63;99102.38;4201612;28;20245;-84
2022/11/26 00:50:39;;;;;;;21.20;15.23;;;;;;;7.54;97.14;99105.69;4189966;28;20215;-84
2022/11/26 00:52:43;;;;;;;17.27;13.80;;;;;;;7.59;98.98;99116.75;4199333;28;20213;-85
2022/11/26 00:54:46;;;;;;;19.70;12.48;;;;;;;7.67;99.05;99119.03;4187889;28;20205;-85
2022/11/26 00:56:50;;;;;;;18.17;11.63;;;;;;;7.74;99.15;99125.66;4188697;28;20229;-85
2022/11/26 00:58:53;;;;;;;16.88;13.25;;;;;;;7.73;99.25;99121.38;4186073;28;20197;-85
2022/11/26 01:00:58;;;;;;;21.90;16.85;;;;;;;7.74;99.39;99128.25;4197626;28;20249;-84
2022/11/26 01:03:01;;;;;;;23.45;16.48;;;;;;;7.66;99.31;99131.16;4187688;28;20464;-85
2022/11/26 01:05:07;;;;;;;22.13;16.65;;;;;;;7.60;99.04;99136.59;4195697;28;20316;-85
2022/11/26 01:07:11;;;;;;;22.30;16.48;;;;;;;7.59;98.11;99137.50;4198645;28;20233;-85
2022/11/26 01:09:17;;;;;;;21.33;16.80;;;;;;;7.58;97.27;99134.97;4197962;28;20198;-85
2022/11/26 01:11:22;;;;;;;18.65;14.85;;;;;;;7.57;97.68;99138.47;4187803;28;20676;-84
2022/11/26 01:13:26;;;;;;;19.48;15.65;;;;;;;7.58;97.33;99142.75;4181235;28;20211;-85
2022/11/26 01:15:29;;;;;;;20.23;15.77;;;;;;;7.57;99.03;99147.09;4178658;28;20670;-85
2022/11/26 01:17:32;;;;;;;19.15;14.20;;;;;;;7.58;97.65;99153.16;4181191;28;20298;-85
2022/11/26 01:19:36;;;;;;;21.88;15.27;;;;;;;7.57;98.30;99156.63;4200993;28;20269;-85
2022/11/26 01:21:39;;;;;;;18.30;14.52;;;;;;;7.57;98.17;99161.81;4203308;28;20227;-85
2022/11/26 01:23:43;;;;;;;16.50;14.05;;;;;;;7.57;97.82;99157.47;4199802;28;20209;-85
2022/11/26 01:25:47;;;;;;;16.95;13.63;;;;;;;7.58;97.70;99158.34;4184487;28;20221;-85
2022/11/26 01:27:50;;;;;;;17.17;14.18;;;;;;;7.61;98.46;99161.66;4197747;28;20662;-85
2022/11/26 01:29:53;;;;;;;19.48;15.00;;;;;;;7.64;99.54;99163.28;4198672;28;20197;-85
2022/11/26 01:31:57;;;;;;;19.80;15.43;;;;;;;7.63;98.53;99159.00;4192526;28;20208;-85
2022/11/26 01:34:00;;;;;;;18.60;14.43;;;;;;;7.64;99.48;99164.13;4200827;28;20193;-85
2022/11/26 01:36:03;;;;;;;20.83;14.50;;;;;;;7.63;97.77;99165.00;4213422;28;20203;-85
2022/11/26 01:38:06;;;;;;;17.58;14.18;;;;;;;7.62;99.21;99171.13;4180313;28;20233;-85
2022/11/26 01:40:43;;;;;;;18.02;14.48;;;;;;;7.59;97.71;99171.25;4199905;28;20340;-85
2022/11/26 01:42:49;;;;;;;19.15;14.15;;;;;;;7.60;98.63;99177.28;4142395;28;20673;-84
2022/11/26 01:44:52;;;;;;;16.58;14.13;;;;;;;7.63;99.43;99182.34;4187418;28;20215;-85
2022/11/26 01:46:57;;;;;;;19.58;14.50;;;;;;;7.67;100.00;99183.94;4204361;28;20213;-85
2022/11/26 01:49:16;;;;;;;19.45;14.15;;;;;;;7.67;99.67;99194.31;4191896;28;20216;-85
2022/11/26 01:51:22;;;;;;;14.45;12.90;;;;;;;7.67;100.00;99189.97;4189090;28;20676;-85
2022/11/26 01:53:37;;;;;;;19.50;14.50;;;;;;;7.68;100.00;99195.97;4199330;28;20209;-84
2022/11/26 01:55:44;;;;;;;22.05;15.20;;;;;;;7.71;99.13;99196.72;4184489;28;20216;-84
2022/11/26 01:57:48;;;;;;;18.33;14.80;;;;;;;7.72;99.90;99193.22;4207222;28;20212;-85
2022/11/26 01:59:53;;;;;;;16.35;13.50;;;;;;;7.72;98.74;99197.56;4185026;28;20198;-85
2022/11/26 02:01:58;;;;;;;17.20;14.45;;;;;;;7.75;98.64;99200.88;4183271;28;20610;-85
2022/11/26 02:04:10;;;;;;;16.20;14.50;;;;;;;7.76;99.32;99210.38;4183292;28;20324;-85
2022/11/26 02:06:16;;;;;;;20.35;16.05;;;;;;;7.79;99.05;99199.03;4185532;28;20236;-85
2022/11/26 02:08:19;;;;;;;22.87;18.27;;;;;;;7.81;100.00;99203.22;4189685;28;20759;-85
2022/11/26 02:10:22;;;;;;;23.80;19.02;;;;;;;7.82;98.99;99202.34;4198309;28;20637;-85
2022/11/26 02:12:28;;;;;;;21.15;17.55;;;;;;;7.84;100.00;99197.09;4189901;28;20254;-85
2022/11/26 02:14:33;;;;;;;18.55;15.95;;;;;;;7.83;99.18;99193.63;4186907;28;20206;-85
2022/11/26 02:16:50;;;;;;;17.50;15.00;;;;;;;7.86;98.54;99198.69;4187256;28;21002;-85
2022/11/26 02:19:05;;;;;;;17.50;15.60;;;;;;;7.86;99.16;99196.09;4183195;28;20620;-85
2022/11/26 02:21:13;;;;;;;19.13;14.45;;;;;;;7.85;99.42;99196.16;4181219;28;20240;-85
2022/11/26 02:23:58;;;;;;;17.67;14.52;;;;;;;7.85;98.36;99197.03;4205784;28;20212;-85
2022/11/26 02:26:20;;;;;;;19.02;15.13;;;;;;;7.85;99.59;99206.53;4195024;28;20217;-85
2022/11/26 02:28:40;;;;;;;15.93;12.70;;;;;;;7.85;99.68;99209.13;4202912;28;20240;-85
2022/11/26 02:30:47;;;;;;;18.02;13.30;;;;;;;7.87;99.35;99220.34;4182016;28;20216;-85
2022/11/26 02:32:56;;;;;;;17.58;13.02;;;;;;;7.87;98.79;99218.56;4186785;28;20219;-85
2022/11/26 02:35:02;;;;;;;18.00;13.73;;;;;;;7.89;99.57;99228.91;4201698;28;20660;-85
2022/11/26 02:37:08;;;;;;;14.90;13.30;;;;;;;7.87;99.92;99228.13;4188916;28;20202;-85
2022/11/26 02:39:13;;;;;;;17.58;13.60;;;;;;;7.87;99.39;99234.16;4197577;28;20724;-85
2022/11/26 02:41:16;;;;;;;16.50;13.65;;;;;;;7.91;100.00;99240.06;4203668;28;20191;-85
2022/11/26 02:43:19;;;;;;;17.00;13.48;;;;;;;7.93;99.75;99238.28;4204708;28;20609;-85
2022/11/26 02:45:25;;;;;;;16.58;14.02;;;;;;;7.95;100.00;99241.63;4189168;28;20228;-85
2022/11/26 02:47:32;;;;;;;17.17;13.65;;;;;;;7.94;100.00;99245.13;4179618;28;20203;-85
2022/11/26 02:49:36;;;;;;;15.52;13.50;;;;;;;7.94;99.52;99250.31;4192296;28;20283;-85
2022/11/26 02:51:40;;;;;;;17.83;13.30;;;;;;;7.94;100.00;99256.38;4182736;28;20211;-85
2022/11/26 02:53:43;;;;;;;14.18;12.75;;;;;;;7.97;99.31;99251.06;4198182;28;20212;-85
2022/11/26 02:55:50;;;;;;;18.08;13.13;;;;;;;7.98;100.00;99258.81;4181674;28;20221;-85
2022/11/26 02:57:53;;;;;;;16.83;13.50;;;;;;;7.98;99.04;99258.81;4187463;28;20262;-85
2022/11/26 02:59:56;;;;;;;19.42;14.27;;;;;;;7.99;99.71;99270.03;4186342;28;20752;-85
2022/11/26 03:02:01;;;;;;;18.80;13.80;;;;;;;7.99;100.00;99272.63;4184836;28;20230;-85
2022/11/26 03:04:09;;;;;;;20.83;14.70;;;;;;;7.97;99.42;99267.50;4183031;28;20680;-85
2022/11/26 03:06:14;;;;;;;18.75;15.02;;;;;;;7.99;99.75;99270.03;4186236;28;20218;-85
2022/11/26 03:08:17;;;;;;;18.17;14.73;;;;;;;8.00;99.37;99271.72;4197962;28;20216;-85
2022/11/26 03:10:26;;;;;;;17.30;14.75;;;;;;;7.99;98.67;99288.22;4185813;28;20206;-85
2022/11/26 03:12:29;;;;;;;18.02;14.40;;;;;;;7.97;100.00;99283.06;4185671;28;20296;-85
2022/11/26 03:14:32;;;;;;;21.50;18.67;;;;;;;8.00;99.67;99295.09;4180060;28;20852;-85
2022/11/26 03:16:35;;;;;;;19.85;16.15;;;;;;;8.01;99.57;99291.59;4198806;28;20205;-85
2022/11/26 03:18:38;;;;;;;18.75;16.40;;;;;;;8.05;99.43;99290.56;4195386;28;20214;-85
2022/11/26 03:20:43;;;;;;;19.23;15.48;;;;;;;8.06;100.00;99287.91;4199195;28;20251;-85
2022/11/26 03:22:46;;;;;;;16.92;15.23;;;;;;;8.08;98.80;99293.06;4200040;28;20617;-85
2022/11/26 03:24:49;;;;;;;19.15;15.95;;;;;;;8.07;99.58;99301.75;4201404;28;20192;-85
2022/11/26 03:26:52;;;;;;;19.83;15.80;;;;;;;8.06;98.97;99300.91;4189592;28;20701;-85
2022/11/26 03:28:55;;;;;;;15.48;13.23;;;;;;;8.06;99.24;99302.66;4208303;28;20204;-85
2022/11/26 03:30:58;;;;;;;21.63;14.18;;;;;;;8.07;99.34;99299.13;4199769;28;20211;-85
2022/11/26 03:33:01;;;;;;;21.17;13.52;;;;;;;8.05;98.13;99304.41;4200098;28;20727;-85
2022/11/26 03:35:05;;;;;;;18.85;14.50;;;;;;;8.04;98.38;99304.44;4188205;28;20708;-85
2022/11/26 03:37:10;;;;;;;16.70;13.70;;;;;;;8.05;98.39;99301.78;4203103;28;20229;-85
2022/11/26 03:39:13;;;;;;;17.33;13.90;;;;;;;8.08;99.52;99301.69;4202981;28;20205;-85
2022/11/26 03:41:16;;;;;;;15.98;12.55;;;;;;;8.08;99.03;99296.47;4205554;28;20206;-85
2022/11/26 03:43:19;;;;;;;18.52;12.93;;;;;;;8.09;98.72;99308.56;4198311;28;20280;-85
2022/11/26 03:45:22;;;;;;;16.27;12.85;;;;;;;8.12;98.79;99299.88;4195878;28;20208;-86
2022/11/26 03:47:26;;;;;;;15.27;12.10;;;;;;;8.12;98.55;99294.66;4198973;28;20296;-85
2022/11/26 03:49:29;;;;;;;21.63;14.38;;;;;;;8.13;98.90;99298.94;4183862;28;20204;-85
2022/11/26 03:51:32;;;;;;;19.15;13.50;;;;;;;8.13;99.41;99302.41;4184810;28;20595;-85
2022/11/26 03:53:37;;;;;;;13.02;10.98;;;;;;;8.14;100.00;99301.47;4197474;28;20201;-85
2022/11/26 03:55:40;;;;;;;12.75;11.45;;;;;;;8.15;98.58;99300.56;4197854;28;20213;-85
2022/11/26 03:57:43;;;;;;;15.25;12.60;;;;;;;8.14;99.71;99295.44;4199234;28;20216;-85
2022/11/26 03:59:46;;;;;;;15.27;12.38;;;;;;;8.12;100.00;99298.09;4199231;28;20217;-85
2022/11/26 04:01:49;;;;;;;14.98;11.57;;;;;;;8.11;99.53;99308.53;4196013;28;20232;-85
2022/11/26 04:03:52;;;;;;;25.08;11.68;;;;;;;8.12;99.75;99312.84;4201145;28;20270;-85
2022/11/26 04:05:55;;;;;;;18.88;11.90;;;;;;;8.13;98.80;99307.59;4199183;28;20687;-85
2022/11/26 04:07:58;;;;;;;18.23;11.63;;;;;;;8.17;100.00;99318.72;4186154;28;20303;-85
2022/11/26 04:10:04;;;;;;;17.90;12.40;;;;;;;8.17;100.00;99322.13;4194681;28;20255;-85
2022/11/26 04:12:07;;;;;;;16.27;12.15;;;;;;;8.16;99.19;99310.06;4201911;28;20213;-86
2022/11/26 04:14:10;;;;;;;21.00;11.77;;;;;;;8.16;100.00;99320.47;4185259;28;20901;-85
2022/11/26 04:16:13;;;;;;;14.38;11.13;;;;;;;8.19;100.00;99322.91;4195175;28;20206;-86
2022/11/26 04:18:16;;;;;;;17.20;11.68;;;;;;;8.22;100.00;99330.59;4202789;28;20242;-85
2022/11/26 04:20:19;;;;;;;19.70;12.48;;;;;;;8.22;100.00;99330.59;4204939;28;20204;-85
2022/11/26 04:22:22;;;;;;;15.90;13.10;;;;;;;8.22;100.00;99327.16;4196442;28;20291;-85
2022/11/26 04:24:25;;;;;;;15.48;11.95;;;;;;;8.21;100.00;99328.91;4185187;28;20367;-85
2022/11/26 04:26:30;;;;;;;17.88;14.73;;;;;;;8.23;100.00;99331.47;4188896;28;20303;-85
2022/11/26 04:28:33;;;;;;;15.75;13.55;;;;;;;8.25;100.00;99330.47;4204897;28;20219;-85
2022/11/26 04:30:36;;;;;;;13.20;11.55;;;;;;;8.25;100.00;99321.84;4200127;28;20205;-85
2022/11/26 04:32:39;;;;;;;18.98;13.65;;;;;;;8.25;99.94;99321.84;4186674;28;20210;-85
2022/11/26 04:34:42;;;;;;;14.85;13.25;;;;;;;8.24;100.00;99326.19;4200406;28;20691;-85
2022/11/26 04:36:45;;;;;;;14.35;11.80;;;;;;;8.27;100.00;99328.69;4187829;28;20206;-85
2022/11/26 04:38:48;;;;;;;14.32;10.40;;;;;;;8.28;100.00;99314.75;4200160;28;20204;-85
2022/11/26 04:40:51;;;;;;;17.63;10.77;;;;;;;8.31;100.00;99322.44;4202067;28;20216;-85
2022/11/26 04:42:56;;;;;;;14.60;10.77;;;;;;;8.34;100.00;99318.88;4190344;28;20233;-85
2022/11/26 04:44:59;;;;;;;17.42;10.90;;;;;;;8.33;100.00;99323.25;4196941;28;20201;-85
2022/11/26 04:47:02;;;;;;;13.93;10.48;;;;;;;8.33;100.00;99318.03;4183149;28;20284;-85
2022/11/26 04:49:05;;;;;;;14.35;10.45;;;;;;;8.32;100.00;99331.94;4185288;28;20205;-85
2022/11/26 04:51:08;;;;;;;14.07;10.50;;;;;;;8.34;100.00;99326.69;4188408;28;20202;-85
2022/11/26 04:53:11;;;;;;;20.85;10.45;;;;;;;8.38;100.00;99334.28;4188060;28;20668;-85
2022/11/26 04:55:15;;;;;;;16.77;10.27;;;;;;;8.40;100.00;99340.25;4195475;28;20724;-85
2022/11/26 04:57:18;;;;;;;21.60;10.77;;;;;;;8.42;100.00;99335.88;4184670;28;20284;-85
2022/11/26 04:59:22;;;;;;;14.05;10.55;;;;;;;8.44;100.00;99345.28;4203728;28;20205;-85
2022/11/26 05:01:25;;;;;;;16.27;11.48;;;;;;;8.44;100.00;99345.28;4199873;28;20193;-85
2022/11/26 05:03:29;;;;;;;17.05;11.20;;;;;;;8.47;100.00;99346.91;4187903;28;20244;-85
2022/11/26 05:05:32;;;;;;;14.48;10.10;;;;;;;8.48;100.00;99348.63;4184607;28;20194;-85
2022/11/26 05:07:35;;;;;;;14.27;11.30;;;;;;;8.49;100.00;99360.69;4203190;28;20333;-85
2022/11/26 05:09:38;;;;;;;17.60;10.75;;;;;;;8.49;100.00;99345.97;4196879;28;20670;-85
2022/11/26 05:11:41;;;;;;;13.48;9.82;;;;;;;8.48;100.00;99351.22;4198364;28;20209;-85
2022/11/26 05:13:44;;;;;;;17.08;11.32;;;;;;;8.48;100.00;99346.03;4198113;28;20246;-85
2022/11/26 05:15:48;;;;;;;15.00;11.00;;;;;;;8.50;100.00;99352.00;4182939;28;20631;-85
2022/11/26 05:17:52;;;;;;;13.15;10.75;;;;;;;8.50;100.00;99354.59;4189657;28;20215;-85
2022/11/26 05:19:55;;;;;;;16.10;10.60;;;;;;;8.52;100.00;99360.56;4196672;28;20201;-85
2022/11/26 05:21:59;;;;;;;14.30;10.15;;;;;;;8.53;100.00;99354.47;4203915;28;20287;-85
2022/11/26 05:24:02;;;;;;;15.98;10.55;;;;;;;8.53;100.00;99354.47;4202531;28;20311;-85
2022/11/26 05:26:05;;;;;;;12.93;9.90;;;;;;;8.52;100.00;99352.78;4201376;28;20198;-85
2022/11/26 05:28:08;;;;;;;16.42;10.25;;;;;;;8.49;100.00;99356.38;4206984;28;20711;-85
2022/11/26 05:30:12;;;;;;;18.92;11.00;;;;;;;8.50;100.00;99359.81;4182112;28;20535;-85
2022/11/26 05:32:16;;;;;;;21.23;11.90;;;;;;;8.50;100.00;99362.41;4206401;28;20205;-85
2022/11/26 05:34:21;;;;;;;16.83;10.68;;;;;;;8.51;100.00;99358.91;4203471;28;20228;-85
2022/11/26 05:36:24;;;;;;;16.08;12.30;;;;;;;8.49;100.00;99358.09;4187729;28;20204;-85
2022/11/26 05:38:27;;;;;;;16.20;12.30;;;;;;;8.47;100.00;99354.72;4204857;28;20235;-85
2022/11/26 05:40:31;;;;;;;14.60;11.38;;;;;;;8.42;100.00;99359.25;4202556;28;20208;-85
2022/11/26 05:42:34;;;;;;;19.02;11.40;;;;;;;8.40;99.93;99361.06;4189043;28;20288;-85
2022/11/26 05:44:38;;;;;;;17.83;12.13;;;;;;;8.38;99.88;99369.84;4200658;28;20866;-85
2022/11/26 05:46:43;;;;;;;16.48;10.85;;;;;;;8.36;100.00;99376.81;4200772;28;20232;-85
2022/11/26 05:48:47;;;;;;;16.73;11.15;;;;;;;8.35;99.95;99377.75;4200486;28;20771;-85
2022/11/26 05:50:57;;;;;;;22.77;13.20;;;;;;;8.35;100.00;99378.59;4186936;28;20223;-85
2022/11/26 05:53:00;;;;;;;17.70;11.70;;;;;;;8.35;100.00;99378.59;4201674;28;20205;-85
2022/11/26 05:55:03;;;;;;;17.08;11.20;;;;;;;8.34;100.00;99378.66;4182931;28;20204;-85
2022/11/26 05:57:06;;;;;;;14.48;10.68;;;;;;;8.34;100.00;99381.25;4184684;28;20249;-86
2022/11/26 05:59:09;;;;;;;16.13;10.30;;;;;;;8.37;100.00;99391.53;4186757;28;20679;-85
2022/11/26 06:01:12;;;;;;;15.52;10.63;;;;;;;8.38;100.00;99388.03;4189399;28;20205;-84
2022/11/26 06:03:16;;;;;;;17.13;11.35;;;;;;;8.38;100.00;99393.22;4185763;28;20194;-84
2022/11/26 06:05:24;;;;;;;17.73;10.30;;;;;;;8.40;100.00;99392.25;4184994;28;20242;-85
2022/11/26 06:07:27;;;;;;;15.88;10.80;;;;;;;8.40;100.00;99391.41;4202074;28;20244;-86
2022/11/26 06:09:30;;;;;;;14.77;11.80;;;;;;;8.37;100.00;99394.97;4198414;28;20215;-86
2022/11/26 06:11:33;;;;;;;15.65;11.35;;;;;;;8.38;100.00;99394.06;4203668;28;20212;-86
2022/11/26 06:13:36;;;;;;;13.30;10.80;;;;;;;8.39;100.00;99393.16;4199358;28;20204;-86
2022/11/26 06:15:39;;;;;;;16.35;12.93;;;;;;;8.42;100.00;99397.38;4203970;28;20211;-85
2022/11/26 06:17:42;;;;;;;14.23;11.05;;;;;;;8.42;100.00;99406.06;4183496;28;20637;-85
2022/11/26 06:19:45;;;;;;;15.70;11.15;;;;;;;8.41;100.00;99400.91;4202094;28;20254;-85
2022/11/26 06:21:49;;;;;;;16.60;10.38;;;;;;;8.42;100.00;99407.78;4189701;28;20245;-85
2022/11/26 06:23:53;;;;;;;14.75;10.32;;;;;;;8.41;100.00;99401.75;4200547;28;20661;-86
2022/11/26 06:26:01;;;;;;;13.43;9.65;;;;;;;8.40;100.00;99401.81;4203151;28;20219;-85
2022/11/26 06:28:05;;;;;;;17.75;13.23;;;;;;;8.38;100.00;99399.28;4202218;28;20204;-85
2022/11/26 06:30:10;;;;;;;19.15;12.80;;;;;;;8.37;100.00;99410.56;4183022;28;20206;-85
2022/11/26 06:32:13;;;;;;;22.77;13.27;;;;;;;8.37;100.00;99407.97;4186792;28;20240;-85
2022/11/26 06:34:16;;;;;;;18.90;13.02;;;;;;;8.38;100.00;99414.88;4201300;28;21188;-85
2022/11/26 06:36:19;;;;;;;17.17;11.43;;;;;;;8.38;100.00;99409.66;4188979;28;20264;-85
2022/11/26 06:38:24;;;;;;;18.90;11.93;;;;;;;8.39;100.00;99416.56;4199856;28;20205;-86
2022/11/26 06:40:27;;;;;;;17.55;12.07;;;;;;;8.39;100.00;99411.38;4202987;28;20202;-85
2022/11/26 06:42:30;;;;;;;19.00;12.75;;;;;;;8.40;100.00;99413.03;4200892;28;20196;-85
2022/11/26 06:44:35;;;;;;;17.85;11.73;;;;;;;8.43;100.00;99412.91;4187592;28;20892;-85
2022/11/26 06:46:38;;;;;;;15.40;11.50;;;;;;;8.45;100.00;99417.16;4203232;28;20209;-85
2022/11/26 06:48:41;;;;;;;13.48;11.07;;;;;;;8.46;99.78;99418.00;4185155;28;21561;-85
2022/11/26 06:50:44;;;;;;;14.93;10.20;;;;;;;8.46;100.00;99418.00;4186244;28;20281;-85
2022/11/26 06:52:51;;;;;;;13.20;9.40;;;;;;;8.47;100.00;99430.94;4185912;28;20198;-84
2022/11/26 06:54:55;;;;;;;17.70;10.63;;;;;;;8.49;100.00;99433.47;4188890;28;20197;-84
2022/11/26 06:56:58;;;;;;;14.50;9.55;;;;;;;8.51;100.00;99436.88;4200347;28;20627;-85
2022/11/26 06:59:01;;;;;;;21.15;11.70;;;;;;;8.53;100.00;99440.28;4196188;28;20232;-85
2022/11/26 07:01:08;;;;;;;19.55;10.20;;;;;;;8.57;100.00;99441.84;4197539;28;20232;-85
2022/11/26 07:03:11;;;;;;;18.95;14.02;;;;;;;8.57;99.69;99437.50;4190104;28;20239;-85
2022/11/26 07:05:14;;;;;;;19.85;14.48;;;;;;;8.51;99.54;99448.13;4196368;28;20233;-86
2022/11/26 07:07:18;;;;;;;18.48;13.80;;;;;;;8.49;100.00;99449.06;4188011;28;20209;-85
2022/11/26 07:09:21;;;;;;;21.35;14.80;;;;;;;8.48;99.39;99444.81;4198203;28;20202;-85
2022/11/26 07:11:26;;;;;;;18.40;13.18;;;;;;;8.49;99.28;99451.69;4196844;28;20258;-85
2022/11/26 07:13:29;;;;;;;17.63;13.85;;;;;;;8.50;100.00;99459.41;4187096;28;20209;-85
2022/11/26 07:15:33;;;;;;;18.50;10.90;;;;;;;8.53;99.71;99466.25;4199653;28;20200;-85
2022/11/26 07:17:36;;;;;;;15.50;10.30;;;;;;;8.54;99.62;99457.56;4206028;28;20223;-85
2022/11/26 07:19:39;;;;;;;12.68;11.15;;;;;;;8.54;100.00;99467.97;4202086;28;20243;-86
2022/11/26 07:21:42;;;;;;;18.58;12.35;;;;;;;8.53;100.00;99477.50;4188744;28;20215;-85
2022/11/26 07:23:45;;;;;;;18.75;14.82;;;;;;;8.54;100.00;99471.41;4204514;28;20210;-86
2022/11/26 07:25:49;;;;;;;20.50;15.40;;;;;;;8.57;100.00;99476.50;4187161;28;20237;-86
2022/11/26 07:27:54;;;;;;;19.52;14.70;;;;;;;8.59;100.00;99484.22;4196585;28;20212;-85
2022/11/26 07:29:57;;;;;;;17.17;14.02;;;;;;;8.62;100.00;99481.50;4200655;28;20205;-85
2022/11/26 07:32:00;;;;;;;19.38;14.13;;;;;;;8.63;100.00;99484.06;4184297;28;20240;-85
2022/11/26 07:34:03;;;;;;;17.65;12.15;;;;;;;8.65;100.00;99497.00;4181075;28;20236;-85
2022/11/26 07:36:15;;;;;;;15.68;12.18;;;;;;;8.66;100.00;99494.34;4182959;28;20292;-85
2022/11/26 07:38:18;;;;;;;15.82;13.35;;;;;;;8.67;100.00;99496.00;4187702;28;20208;-85
2022/11/26 07:40:21;;;;;;;16.83;14.38;;;;;;;8.68;100.00;99508.13;4184850;28;20583;-85
2022/11/26 07:42:24;;;;;;;15.55;12.80;;;;;;;8.70;100.00;99511.50;4195985;28;20221;-85
2022/11/26 07:44:29;;;;;;;17.98;13.13;;;;;;;8.72;100.00;99509.72;4183850;28;20672;-85
2022/11/26 07:46:32;;;;;;;20.48;13.75;;;;;;;8.72;100.00;99519.25;4185905;28;20200;-85
2022/11/26 07:48:37;;;;;;;15.95;13.05;;;;;;;8.75;100.00;99524.34;4196837;28;20224;-85
2022/11/26 07:50:43;;;;;;;18.27;12.52;;;;;;;8.77;100.00;99525.13;4197767;28;20209;-86
2022/11/26 07:52:46;;;;;;;18.13;13.00;;;;;;;8.80;100.00;99530.22;4185588;28;20205;-85
2022/11/26 07:54:49;;;;;;;23.20;15.70;;;;;;;8.84;100.00;99537.00;4186264;28;20202;-85
2022/11/26 07:56:52;;;;;;;19.45;16.05;;;;;;;8.86;100.00;99533.44;4185485;28;20259;-85
2022/11/26 07:58:55;;;;;;;21.33;15.20;;;;;;;8.89;100.00;99541.13;4200489;28;20205;-85
2022/11/26 08:01:07;;;;;;;22.55;15.55;;;;;;;8.92;100.00;99537.56;4200683;28;21235;-86
2022/11/26 08:03:11;;;;;;;18.92;14.90;;;;;;;8.92;100.00;99544.44;4184355;28;20193;-85
2022/11/26 08:05:14;;;;;;;19.30;14.30;;;;;;;8.95;100.00;99549.53;4203804;28;20221;-85
2022/11/26 08:07:17;;;;;;;20.95;14.48;;;;;;;8.99;100.00;99540.72;4182974;28;20617;-85
2022/11/26 08:09:30;;;;;;;17.85;13.30;;;;;;;9.02;100.00;99543.19;4189772;28;20241;-86
2022/11/26 08:11:34;;;;;;;16.42;14.15;;;;;;;9.05;100.00;99550.00;4186691;28;20198;-84
2022/11/26 08:13:37;;;;;;;29.27;14.60;;;;;;;9.08;100.00;99549.88;4200000;28;20622;-85
2022/11/26 08:15:40;;;;;;;18.95;13.43;;;;;;;9.10;100.00;99545.50;4189693;28;20208;-85
2022/11/26 08:17:45;;;;;;;20.08;13.85;;;;;;;9.11;100.00;99547.16;4183879;28;20317;-85
2022/11/26 08:19:48;;;;;;;19.92;14.35;;;;;;;9.12;100.00;99552.31;4197347;28;20211;-85
2022/11/26 08:21:51;;;;;;;21.23;14.88;;;;;;;9.15;99.54;99554.78;4199221;28;20368;-85
2022/11/26 08:23:54;;;;;;;21.65;16.80;;;;;;;9.15;100.00;99552.19;4184232;28;20251;-85
2022/11/26 08:25:57;;;;;;;24.73;17.00;;;;;;;9.16;100.00;99547.84;4197291;28;20222;-85
2022/11/26 08:28:21;;;;;;;23.63;17.77;;;;;;;9.18;100.00;99557.28;4179298;28;20216;-86
2022/11/26 08:30:24;;;;;;;22.63;17.38;;;;;;;9.20;100.00;99559.81;4186495;28;20198;-84
2022/11/26 08:32:27;;;;;;;26.65;17.90;;;;;;;9.21;100.00;99557.16;4182682;28;20197;-84
2022/11/26 08:34:32;;;;;;;26.45;17.98;;;;;;;9.24;100.00;99562.25;4197084;28;20196;-84
2022/11/26 08:36:35;;;;;;;21.73;18.15;;;;;;;9.27;100.00;99564.72;4200582;28;20201;-84
2022/11/26 08:38:39;;;;;;;19.98;13.45;;;;;;;9.29;100.00;99562.06;4197051;28;20886;-85
2022/11/26 08:40:42;;;;;;;25.95;13.50;;;;;;;9.32;100.00;99562.81;4195623;28;20242;-84
2022/11/26 08:42:45;;;;;;;20.20;13.13;;;;;;;9.35;100.00;99565.28;4184720;28;20212;-84
2022/11/26 08:44:50;;;;;;;18.05;12.73;;;;;;;9.37;100.00;99568.66;4185832;28;20276;-85
2022/11/26 08:46:53;;;;;;;22.45;13.63;;;;;;;9.40;100.00;99568.56;4185039;28;20271;-85
2022/11/26 08:48:56;;;;;;;21.25;15.80;;;;;;;9.39;100.00;99566.84;4184899;28;20205;-84
2022/11/26 08:51:02;;;;;;;19.85;13.25;;;;;;;9.43;100.00;99573.63;4184881;28;20229;-85
2022/11/26 08:53:05;;;;;;;20.05;13.73;;;;;;;9.44;100.00;99581.38;4199256;28;20208;-85
2022/11/26 08:55:08;;;;;;;18.83;14.02;;;;;;;9.47;100.00;99583.00;4196641;28;20208;-85
2022/11/26 08:57:11;;;;;;;22.20;14.30;;;;;;;9.50;100.00;99577.66;4186975;28;21270;-86
2022/11/26 08:59:16;;;;;;;19.98;13.48;;;;;;;9.49;100.00;99579.44;4184191;28;20220;-84
2022/11/26 09:01:20;;;;;;;21.42;14.15;;;;;;;9.48;100.00;99572.53;4200385;28;20205;-85
2022/11/26 09:03:23;;;;;;;22.17;14.32;;;;;;;9.52;100.00;99581.91;4204043;28;20192;-85
2022/11/26 09:05:27;;;;;;;22.48;15.55;;;;;;;9.51;100.00;99582.81;4197993;28;20211;-84
2022/11/26 09:07:31;;;;;;;22.70;16.10;;;;;;;9.55;100.00;99589.59;4201577;28;20270;-85
2022/11/26 09:09:34;;;;;;;22.83;14.50;;;;;;;9.62;100.00;99592.81;4205740;28;20638;-84
2022/11/26 09:11:40;;;;;;;23.60;14.85;;;;;;;9.65;100.00;99590.06;4191608;28;20296;-85
2022/11/26 09:13:43;;;;;;;19.95;14.40;;;;;;;9.68;100.00;99592.56;4202804;28;20251;-86
2022/11/26 09:15:46;;;;;;;22.45;14.20;;;;;;;9.68;100.00;99595.16;4203059;28;20209;-85
2022/11/26 09:17:49;;;;;;;18.75;12.95;;;;;;;9.69;100.00;99596.88;4200976;28;20239;-86
2022/11/26 09:19:52;;;;;;;17.20;12.85;;;;;;;9.74;100.00;99593.19;4193492;28;20334;-83
2022/11/26 09:21:55;;;;;;;20.48;12.93;;;;;;;9.79;100.00;99598.16;4195899;28;20299;-83
2022/11/26 09:24:00;;;;;;;27.50;16.98;;;;;;;9.79;100.00;99598.16;4199376;28;20263;-83
2022/11/26 09:26:03;;;;;;;26.37;15.10;;;;;;;9.77;100.00;99580.00;4194193;28;20367;-83
2022/11/26 09:28:06;;;;;;;23.63;16.80;;;;;;;9.84;99.93;99578.84;4194556;28;20630;-83
2022/11/26 09:30:11;;;;;;;19.67;12.70;;;;;;;9.97;100.00;99578.28;4193783;28;20775;-84
2022/11/26 09:32:14;;;;;;;19.13;13.25;;;;;;;10.12;99.48;99580.25;4174252;28;20639;-84
2022/11/26 09:34:28;;;;;;;17.25;11.40;;;;;;;10.26;100.00;99570.06;4196148;28;20255;-84
2022/11/26 09:36:31;;;;;;;38.80;25.83;;;;;;;10.27;99.01;99571.78;4205390;28;20209;-84